PTKK

Chuuk International Airport

Airport
ICAO code
PTKK
IATA Code
TKK
Summary
ICAO Region
APAC
ICAO Territory
Location

Weno, Chuuk

Serving
Chuuk
Elevation
11 ft
Coordinates
7° 27' 43" N , 151° 50' 35" E
KCC
Metar
Observation
PTKK 271250Z 04006G16KT 15SM FEW014 SCT280 28/24 A2974 RMK SLP074 T02760244
Station
Weno Island, Chuuk Int. Airp.
Date/Time
2023-01-27 12:50:00
Wind direction
40°
Wind speed
06 kts
Lowest cloud amount
few clouds
Temperature
27.6°C
Dew point
24.4°C
Humidity
82%
Weather condition
n/a

Chuuk International Airport is an airport located on Weno (formerly Moen), the main island of the State of Chuuk (formerly Truk) in the Federated States of Micronesia.

Climatology

Tropical Savanna climate (Köppen climate classification Aw)

Runways

Designator Length Width Surface Rops
4/22 1831 46 ASP Yes/Yes

Airport map

Aerial View

SKYbrary Partners:

Safety knowledge contributed by: